sensor_id;sensor_type;location;lat;lon;timestamp;P1;durP1;ratioP1;P2;durP2;ratioP2
78489;SDS011;67776;52.012;4.736;2023-04-03T00:00:12;3.87;;;1.40;;
78489;SDS011;67776;52.012;4.736;2023-04-03T00:02:38;4.72;;;1.30;;
78489;SDS011;67776;52.012;4.736;2023-04-03T00:05:03;5.63;;;1.30;;
78489;SDS011;67776;52.012;4.736;2023-04-03T00:07:29;5.07;;;1.20;;
78489;SDS011;67776;52.012;4.736;2023-04-03T00:09:55;5.67;;;1.47;;
78489;SDS011;67776;52.012;4.736;2023-04-03T00:12:20;3.90;;;1.20;;
78489;SDS011;67776;52.012;4.736;2023-04-03T00:14:46;5.07;;;1.47;;
78489;SDS011;67776;52.012;4.736;2023-04-03T00:17:11;4.93;;;1.47;;
78489;SDS011;67776;52.012;4.736;2023-04-03T00:19:36;4.47;;;1.50;;
78489;SDS011;67776;52.012;4.736;2023-04-03T00:22:01;7.77;;;1.30;;
78489;SDS011;67776;52.012;4.736;2023-04-03T00:24:27;4.63;;;1.30;;
78489;SDS011;67776;52.012;4.736;2023-04-03T00:26:52;6.57;;;1.30;;
78489;SDS011;67776;52.012;4.736;2023-04-03T00:29:17;5.20;;;1.37;;
78489;SDS011;67776;52.012;4.736;2023-04-03T00:31:43;4.90;;;1.30;;
78489;SDS011;67776;52.012;4.736;2023-04-03T00:34:08;3.67;;;1.13;;
78489;SDS011;67776;52.012;4.736;2023-04-03T00:36:33;4.13;;;1.20;;
78489;SDS011;67776;52.012;4.736;2023-04-03T00:38:59;4.03;;;1.50;;
78489;SDS011;67776;52.012;4.736;2023-04-03T00:41:24;5.80;;;1.30;;
78489;SDS011;67776;52.012;4.736;2023-04-03T00:43:50;3.97;;;1.30;;
78489;SDS011;67776;52.012;4.736;2023-04-03T00:46:15;4.77;;;1.20;;
78489;SDS011;67776;52.012;4.736;2023-04-03T00:48:42;4.13;;;1.30;;
78489;SDS011;67776;52.012;4.736;2023-04-03T00:51:11;4.68;;;1.48;;
78489;SDS011;67776;52.012;4.736;2023-04-03T00:53:41;6.40;;;1.60;;
78489;SDS011;67776;52.012;4.736;2023-04-03T00:56:12;5.93;;;1.50;;
78489;SDS011;67776;52.012;4.736;2023-04-03T00:58:42;4.50;;;1.40;;
78489;SDS011;67776;52.012;4.736;2023-04-03T01:01:15;4.18;;;1.30;;
78489;SDS011;67776;52.012;4.736;2023-04-03T01:03:44;4.93;;;1.30;;
78489;SDS011;67776;52.012;4.736;2023-04-03T01:06:10;4.53;;;1.50;;
78489;SDS011;67776;52.012;4.736;2023-04-03T01:08:35;4.95;;;1.35;;
78489;SDS011;67776;52.012;4.736;2023-04-03T01:11:01;4.70;;;1.40;;
78489;SDS011;67776;52.012;4.736;2023-04-03T01:13:27;5.30;;;1.40;;
78489;SDS011;67776;52.012;4.736;2023-04-03T01:15:54;4.28;;;1.38;;
78489;SDS011;67776;52.012;4.736;2023-04-03T01:18:20;7.13;;;1.47;;
78489;SDS011;67776;52.012;4.736;2023-04-03T01:25:49;4.00;;;1.50;;
78489;SDS011;67776;52.012;4.736;2023-04-03T01:28:18;4.35;;;1.42;;
78489;SDS011;67776;52.012;4.736;2023-04-03T01:30:47;5.47;;;1.60;;
78489;SDS011;67776;52.012;4.736;2023-04-03T01:33:24;5.68;;;1.42;;
78489;SDS011;67776;52.012;4.736;2023-04-03T01:35:50;6.13;;;1.53;;
78489;SDS011;67776;52.012;4.736;2023-04-03T01:38:15;4.50;;;1.40;;
78489;SDS011;67776;52.012;4.736;2023-04-03T01:40:41;4.73;;;1.47;;
78489;SDS011;67776;52.012;4.736;2023-04-03T01:43:06;4.63;;;1.60;;
78489;SDS011;67776;52.012;4.736;2023-04-03T01:45:32;5.37;;;1.67;;
78489;SDS011;67776;52.012;4.736;2023-04-03T01:47:57;5.93;;;1.67;;
78489;SDS011;67776;52.012;4.736;2023-04-03T01:50:22;6.00;;;1.70;;
78489;SDS011;67776;52.012;4.736;2023-04-03T01:52:48;5.77;;;1.37;;
78489;SDS011;67776;52.012;4.736;2023-04-03T01:55:13;5.50;;;1.67;;
78489;SDS011;67776;52.012;4.736;2023-04-03T01:57:38;5.55;;;1.70;;
78489;SDS011;67776;52.012;4.736;2023-04-03T02:00:04;6.60;;;1.67;;
78489;SDS011;67776;52.012;4.736;2023-04-03T02:02:30;4.45;;;1.70;;
78489;SDS011;67776;52.012;4.736;2023-04-03T02:04:55;6.70;;;1.63;;
78489;SDS011;67776;52.012;4.736;2023-04-03T02:07:21;6.47;;;1.50;;
78489;SDS011;67776;52.012;4.736;2023-04-03T02:09:46;5.50;;;1.50;;
78489;SDS011;67776;52.012;4.736;2023-04-03T02:12:11;4.27;;;1.60;;
78489;SDS011;67776;52.012;4.736;2023-04-03T02:14:37;6.23;;;1.87;;
78489;SDS011;67776;52.012;4.736;2023-04-03T02:17:02;6.27;;;2.03;;
78489;SDS011;67776;52.012;4.736;2023-04-03T02:19:33;4.90;;;1.70;;
78489;SDS011;67776;52.012;4.736;2023-04-03T02:21:59;4.78;;;1.60;;
78489;SDS011;67776;52.012;4.736;2023-04-03T02:24:24;5.97;;;1.43;;
78489;SDS011;67776;52.012;4.736;2023-04-03T02:26:50;6.30;;;1.80;;
78489;SDS011;67776;52.012;4.736;2023-04-03T02:29:15;5.68;;;1.77;;
78489;SDS011;67776;52.012;4.736;2023-04-03T02:31:40;4.90;;;1.60;;
78489;SDS011;67776;52.012;4.736;2023-04-03T02:34:06;5.03;;;1.50;;
78489;SDS011;67776;52.012;4.736;2023-04-03T02:36:31;7.37;;;1.83;;
78489;SDS011;67776;52.012;4.736;2023-04-03T02:38:56;6.10;;;1.83;;
78489;SDS011;67776;52.012;4.736;2023-04-03T02:41:22;4.77;;;1.70;;
78489;SDS011;67776;52.012;4.736;2023-04-03T02:43:47;5.90;;;1.97;;
78489;SDS011;67776;52.012;4.736;2023-04-03T02:46:12;5.03;;;1.70;;
78489;SDS011;67776;52.012;4.736;2023-04-03T02:48:40;5.93;;;1.90;;
78489;SDS011;67776;52.012;4.736;2023-04-03T02:51:05;6.60;;;1.87;;
78489;SDS011;67776;52.012;4.736;2023-04-03T02:53:31;6.03;;;2.00;;
78489;SDS011;67776;52.012;4.736;2023-04-03T02:55:56;6.40;;;1.90;;
78489;SDS011;67776;52.012;4.736;2023-04-03T02:58:21;8.20;;;1.93;;
78489;SDS011;67776;52.012;4.736;2023-04-03T03:00:47;6.33;;;1.70;;
78489;SDS011;67776;52.012;4.736;2023-04-03T03:03:12;6.63;;;2.13;;
78489;SDS011;67776;52.012;4.736;2023-04-03T03:05:39;6.90;;;2.20;;
78489;SDS011;67776;52.012;4.736;2023-04-03T03:08:04;4.27;;;1.60;;
78489;SDS011;67776;52.012;4.736;2023-04-03T03:10:29;4.87;;;1.87;;
78489;SDS011;67776;52.012;4.736;2023-04-03T03:12:55;5.25;;;1.77;;
78489;SDS011;67776;52.012;4.736;2023-04-03T03:15:20;5.33;;;1.80;;
78489;SDS011;67776;52.012;4.736;2023-04-03T03:17:46;6.70;;;1.80;;
78489;SDS011;67776;52.012;4.736;2023-04-03T03:20:11;5.70;;;1.80;;
78489;SDS011;67776;52.012;4.736;2023-04-03T03:22:40;8.50;;;2.03;;
78489;SDS011;67776;52.012;4.736;2023-04-03T03:25:05;6.63;;;1.80;;
78489;SDS011;67776;52.012;4.736;2023-04-03T03:27:30;6.45;;;1.90;;
78489;SDS011;67776;52.012;4.736;2023-04-03T03:29:56;5.70;;;1.73;;
78489;SDS011;67776;52.012;4.736;2023-04-03T03:32:21;6.70;;;2.10;;
78489;SDS011;67776;52.012;4.736;2023-04-03T03:34:47;6.27;;;1.87;;
78489;SDS011;67776;52.012;4.736;2023-04-03T03:37:12;5.63;;;1.90;;
78489;SDS011;67776;52.012;4.736;2023-04-03T03:39:37;6.40;;;1.90;;
78489;SDS011;67776;52.012;4.736;2023-04-03T03:42:02;6.60;;;1.88;;
78489;SDS011;67776;52.012;4.736;2023-04-03T03:44:28;7.37;;;2.20;;
78489;SDS011;67776;52.012;4.736;2023-04-03T03:46:56;5.63;;;2.00;;
78489;SDS011;67776;52.012;4.736;2023-04-03T03:49:21;5.40;;;1.90;;
78489;SDS011;67776;52.012;4.736;2023-04-03T03:51:47;5.57;;;1.70;;
78489;SDS011;67776;52.012;4.736;2023-04-03T03:54:12;7.97;;;2.10;;
78489;SDS011;67776;52.012;4.736;2023-04-03T03:56:38;6.75;;;2.10;;
78489;SDS011;67776;52.012;4.736;2023-04-03T03:59:04;6.45;;;1.95;;
78489;SDS011;67776;52.012;4.736;2023-04-03T04:01:29;7.00;;;1.80;;
78489;SDS011;67776;52.012;4.736;2023-04-03T04:03:55;6.05;;;1.95;;
78489;SDS011;67776;52.012;4.736;2023-04-03T04:06:20;6.47;;;2.37;;
78489;SDS011;67776;52.012;4.736;2023-04-03T04:08:46;6.57;;;2.20;;
78489;SDS011;67776;52.012;4.736;2023-04-03T04:11:11;7.23;;;2.13;;
78489;SDS011;67776;52.012;4.736;2023-04-03T04:13:37;4.87;;;1.93;;
78489;SDS011;67776;52.012;4.736;2023-04-03T04:16:02;7.65;;;2.20;;
78489;SDS011;67776;52.012;4.736;2023-04-03T04:18:28;6.63;;;1.93;;
78489;SDS011;67776;52.012;4.736;2023-04-03T04:20:53;7.30;;;2.37;;
78489;SDS011;67776;52.012;4.736;2023-04-03T04:23:18;6.20;;;2.00;;
78489;SDS011;67776;52.012;4.736;2023-04-03T04:25:45;7.13;;;2.00;;
78489;SDS011;67776;52.012;4.736;2023-04-03T04:28:11;5.20;;;1.90;;
78489;SDS011;67776;52.012;4.736;2023-04-03T04:30:37;6.07;;;2.22;;
78489;SDS011;67776;52.012;4.736;2023-04-03T04:33:02;7.60;;;2.23;;
78489;SDS011;67776;52.012;4.736;2023-04-03T04:35:28;6.50;;;2.08;;
78489;SDS011;67776;52.012;4.736;2023-04-03T04:37:54;5.30;;;1.90;;
78489;SDS011;67776;52.012;4.736;2023-04-03T04:40:19;6.28;;;2.20;;
78489;SDS011;67776;52.012;4.736;2023-04-03T04:42:45;7.40;;;2.27;;
78489;SDS011;67776;52.012;4.736;2023-04-03T04:45:10;7.87;;;2.30;;
78489;SDS011;67776;52.012;4.736;2023-04-03T04:47:35;5.90;;;1.90;;
78489;SDS011;67776;52.012;4.736;2023-04-03T04:50:01;8.10;;;2.10;;
78489;SDS011;67776;52.012;4.736;2023-04-03T04:52:26;6.07;;;2.47;;
78489;SDS011;67776;52.012;4.736;2023-04-03T04:54:51;5.88;;;2.22;;
78489;SDS011;67776;52.012;4.736;2023-04-03T04:57:17;6.77;;;2.60;;
78489;SDS011;67776;52.012;4.736;2023-04-03T04:59:42;7.93;;;2.53;;
78489;SDS011;67776;52.012;4.736;2023-04-03T05:02:07;7.13;;;2.23;;
78489;SDS011;67776;52.012;4.736;2023-04-03T05:04:33;6.23;;;2.40;;
78489;SDS011;67776;52.012;4.736;2023-04-03T05:06:58;6.57;;;2.30;;
78489;SDS011;67776;52.012;4.736;2023-04-03T05:09:24;6.95;;;2.35;;
78489;SDS011;67776;52.012;4.736;2023-04-03T05:11:49;6.40;;;2.50;;
78489;SDS011;67776;52.012;4.736;2023-04-03T05:14:15;6.93;;;2.50;;
78489;SDS011;67776;52.012;4.736;2023-04-03T05:16:41;8.15;;;2.60;;
78489;SDS011;67776;52.012;4.736;2023-04-03T05:19:06;7.73;;;2.60;;
78489;SDS011;67776;52.012;4.736;2023-04-03T05:21:32;7.03;;;2.50;;
78489;SDS011;67776;52.012;4.736;2023-04-03T05:23:58;6.77;;;2.40;;
78489;SDS011;67776;52.012;4.736;2023-04-03T05:26:24;7.38;;;2.50;;
78489;SDS011;67776;52.012;4.736;2023-04-03T05:28:51;7.65;;;2.47;;
78489;SDS011;67776;52.012;4.736;2023-04-03T05:31:16;6.37;;;2.47;;
78489;SDS011;67776;52.012;4.736;2023-04-03T05:33:42;6.93;;;2.47;;
78489;SDS011;67776;52.012;4.736;2023-04-03T05:36:07;7.80;;;2.78;;
78489;SDS011;67776;52.012;4.736;2023-04-03T05:38:33;6.70;;;2.63;;
78489;SDS011;67776;52.012;4.736;2023-04-03T05:40:58;7.27;;;2.60;;
78489;SDS011;67776;52.012;4.736;2023-04-03T05:43:24;8.27;;;2.72;;
78489;SDS011;67776;52.012;4.736;2023-04-03T05:45:50;10.30;;;2.90;;
78489;SDS011;67776;52.012;4.736;2023-04-03T05:48:16;7.68;;;2.80;;
78489;SDS011;67776;52.012;4.736;2023-04-03T05:50:41;6.87;;;2.53;;
78489;SDS011;67776;52.012;4.736;2023-04-03T05:53:08;8.05;;;2.88;;
78489;SDS011;67776;52.012;4.736;2023-04-03T05:55:46;7.10;;;2.77;;
78489;SDS011;67776;52.012;4.736;2023-04-03T05:58:11;9.60;;;2.50;;
78489;SDS011;67776;52.012;4.736;2023-04-03T06:00:37;9.07;;;2.60;;
78489;SDS011;67776;52.012;4.736;2023-04-03T06:03:03;11.17;;;2.80;;
78489;SDS011;67776;52.012;4.736;2023-04-03T06:05:28;5.63;;;2.55;;
78489;SDS011;67776;52.012;4.736;2023-04-03T06:07:53;8.57;;;2.60;;
78489;SDS011;67776;52.012;4.736;2023-04-03T06:10:19;6.67;;;2.67;;
78489;SDS011;67776;52.012;4.736;2023-04-03T06:12:45;8.10;;;2.80;;
78489;SDS011;67776;52.012;4.736;2023-04-03T06:15:10;10.83;;;2.83;;
78489;SDS011;67776;52.012;4.736;2023-04-03T06:17:36;6.57;;;2.40;;
78489;SDS011;67776;52.012;4.736;2023-04-03T06:20:02;6.60;;;2.38;;
78489;SDS011;67776;52.012;4.736;2023-04-03T06:22:28;7.43;;;2.50;;
78489;SDS011;67776;52.012;4.736;2023-04-03T06:24:55;10.15;;;2.80;;
78489;SDS011;67776;52.012;4.736;2023-04-03T06:27:20;9.05;;;2.85;;
78489;SDS011;67776;52.012;4.736;2023-04-03T06:29:46;7.40;;;2.47;;
78489;SDS011;67776;52.012;4.736;2023-04-03T06:32:11;8.60;;;3.03;;
78489;SDS011;67776;52.012;4.736;2023-04-03T06:34:37;8.90;;;2.75;;
78489;SDS011;67776;52.012;4.736;2023-04-03T06:37:02;8.27;;;2.70;;
78489;SDS011;67776;52.012;4.736;2023-04-03T06:39:28;7.70;;;2.63;;
78489;SDS011;67776;52.012;4.736;2023-04-03T06:41:54;10.57;;;2.78;;
78489;SDS011;67776;52.012;4.736;2023-04-03T06:44:20;11.43;;;3.22;;
78489;SDS011;67776;52.012;4.736;2023-04-03T06:46:45;7.77;;;2.77;;
78489;SDS011;67776;52.012;4.736;2023-04-03T06:49:11;6.38;;;2.50;;
78489;SDS011;67776;52.012;4.736;2023-04-03T06:51:37;7.50;;;2.70;;
78489;SDS011;67776;52.012;4.736;2023-04-03T06:54:04;6.77;;;2.40;;
78489;SDS011;67776;52.012;4.736;2023-04-03T06:56:31;10.32;;;2.50;;
78489;SDS011;67776;52.012;4.736;2023-04-03T06:58:57;9.02;;;2.63;;
78489;SDS011;67776;52.012;4.736;2023-04-03T07:01:23;7.83;;;2.53;;
78489;SDS011;67776;52.012;4.736;2023-04-03T07:03:51;12.18;;;2.65;;
78489;SDS011;67776;52.012;4.736;2023-04-03T07:06:17;11.67;;;2.83;;
78489;SDS011;67776;52.012;4.736;2023-04-03T07:08:43;9.95;;;2.80;;
78489;SDS011;67776;52.012;4.736;2023-04-03T07:11:09;7.80;;;2.30;;
78489;SDS011;67776;52.012;4.736;2023-04-03T07:13:37;7.30;;;2.33;;
78489;SDS011;67776;52.012;4.736;2023-04-03T07:16:02;7.60;;;2.63;;
78489;SDS011;67776;52.012;4.736;2023-04-03T07:18:30;5.90;;;2.10;;
78489;SDS011;67776;52.012;4.736;2023-04-03T07:20:55;6.88;;;2.08;;
78489;SDS011;67776;52.012;4.736;2023-04-03T07:23:21;5.67;;;1.97;;
78489;SDS011;67776;52.012;4.736;2023-04-03T07:25:47;9.10;;;2.30;;
78489;SDS011;67776;52.012;4.736;2023-04-03T07:28:13;7.30;;;2.33;;
78489;SDS011;67776;52.012;4.736;2023-04-03T07:30:54;7.15;;;2.40;;
78489;SDS011;67776;52.012;4.736;2023-04-03T07:33:25;9.25;;;2.17;;
78489;SDS011;67776;52.012;4.736;2023-04-03T07:35:51;6.73;;;2.33;;
78489;SDS011;67776;52.012;4.736;2023-04-03T07:38:16;6.00;;;2.17;;
78489;SDS011;67776;52.012;4.736;2023-04-03T07:40:48;9.20;;;2.33;;
78489;SDS011;67776;52.012;4.736;2023-04-03T07:43:15;6.80;;;2.10;;
78489;SDS011;67776;52.012;4.736;2023-04-03T07:45:41;7.80;;;2.63;;
78489;SDS011;67776;52.012;4.736;2023-04-03T07:48:08;6.63;;;2.20;;
78489;SDS011;67776;52.012;4.736;2023-04-03T07:50:34;7.68;;;2.10;;
78489;SDS011;67776;52.012;4.736;2023-04-03T07:53:01;9.32;;;2.10;;
78489;SDS011;67776;52.012;4.736;2023-04-03T07:55:26;8.60;;;2.20;;
78489;SDS011;67776;52.012;4.736;2023-04-03T07:57:52;6.00;;;1.97;;
78489;SDS011;67776;52.012;4.736;2023-04-03T08:00:17;5.10;;;1.90;;
78489;SDS011;67776;52.012;4.736;2023-04-03T08:02:44;7.83;;;2.00;;
78489;SDS011;67776;52.012;4.736;2023-04-03T08:05:15;7.15;;;2.10;;
78489;SDS011;67776;52.012;4.736;2023-04-03T08:07:40;7.67;;;2.10;;
78489;SDS011;67776;52.012;4.736;2023-04-03T08:10:06;9.47;;;2.00;;
78489;SDS011;67776;52.012;4.736;2023-04-03T08:12:31;9.43;;;2.23;;
78489;SDS011;67776;52.012;4.736;2023-04-03T08:14:57;6.80;;;1.90;;
78489;SDS011;67776;52.012;4.736;2023-04-03T08:17:22;8.20;;;1.90;;
78489;SDS011;67776;52.012;4.736;2023-04-03T08:19:48;8.43;;;2.10;;
78489;SDS011;67776;52.012;4.736;2023-04-03T08:22:13;7.13;;;2.20;;
78489;SDS011;67776;52.012;4.736;2023-04-03T08:24:38;6.55;;;2.03;;
78489;SDS011;67776;52.012;4.736;2023-04-03T08:27:04;11.13;;;2.17;;
78489;SDS011;67776;52.012;4.736;2023-04-03T08:29:29;6.20;;;2.20;;
78489;SDS011;67776;52.012;4.736;2023-04-03T08:31:54;6.70;;;1.90;;
78489;SDS011;67776;52.012;4.736;2023-04-03T08:34:20;5.10;;;1.90;;
78489;SDS011;67776;52.012;4.736;2023-04-03T08:36:45;8.20;;;1.97;;
78489;SDS011;67776;52.012;4.736;2023-04-03T08:39:11;5.27;;;1.63;;
78489;SDS011;67776;52.012;4.736;2023-04-03T08:41:44;7.63;;;1.92;;
78489;SDS011;67776;52.012;4.736;2023-04-03T08:47:13;4.57;;;1.60;;
78489;SDS011;67776;52.012;4.736;2023-04-03T08:49:59;5.65;;;1.60;;
78489;SDS011;67776;52.012;4.736;2023-04-03T08:55:22;5.65;;;1.60;;
78489;SDS011;67776;52.012;4.736;2023-04-03T08:57:45;6.32;;;1.60;;
78489;SDS011;67776;52.012;4.736;2023-04-03T09:02:43;4.47;;;1.35;;
78489;SDS011;67776;52.012;4.736;2023-04-03T09:05:14;4.10;;;1.13;;
78489;SDS011;67776;52.012;4.736;2023-04-03T09:07:44;6.10;;;1.17;;
78489;SDS011;67776;52.012;4.736;2023-04-03T09:10:13;5.32;;;1.30;;
78489;SDS011;67776;52.012;4.736;2023-04-03T09:12:41;3.53;;;1.00;;
78489;SDS011;67776;52.012;4.736;2023-04-03T09:15:20;5.15;;;1.60;;
78489;SDS011;67776;52.012;4.736;2023-04-03T09:18:03;4.27;;;1.20;;
78489;SDS011;67776;52.012;4.736;2023-04-03T09:20:49;4.43;;;1.20;;
78489;SDS011;67776;52.012;4.736;2023-04-03T09:26:14;5.03;;;1.27;;
78489;SDS011;67776;52.012;4.736;2023-04-03T09:28:44;4.70;;;1.10;;
78489;SDS011;67776;52.012;4.736;2023-04-03T09:31:16;6.33;;;1.33;;
78489;SDS011;67776;52.012;4.736;2023-04-03T09:33:49;3.63;;;1.10;;
78489;SDS011;67776;52.012;4.736;2023-04-03T09:39:12;3.47;;;1.10;;
78489;SDS011;67776;52.012;4.736;2023-04-03T09:41:40;4.17;;;1.00;;
78489;SDS011;67776;52.012;4.736;2023-04-03T09:44:17;5.03;;;1.38;;
78489;SDS011;67776;52.012;4.736;2023-04-03T09:46:46;4.65;;;1.20;;
78489;SDS011;67776;52.012;4.736;2023-04-03T09:49:12;3.22;;;1.10;;
78489;SDS011;67776;52.012;4.736;2023-04-03T09:51:38;5.83;;;1.20;;
78489;SDS011;67776;52.012;4.736;2023-04-03T09:57:09;3.63;;;1.30;;
78489;SDS011;67776;52.012;4.736;2023-04-03T09:59:42;3.15;;;0.90;;
78489;SDS011;67776;52.012;4.736;2023-04-03T10:04:37;4.07;;;1.10;;
78489;SDS011;67776;52.012;4.736;2023-04-03T10:07:04;2.97;;;1.08;;
78489;SDS011;67776;52.012;4.736;2023-04-03T10:10:03;3.55;;;1.17;;
78489;SDS011;67776;52.012;4.736;2023-04-03T10:12:45;3.87;;;0.90;;
78489;SDS011;67776;52.012;4.736;2023-04-03T10:15:14;3.13;;;1.05;;
78489;SDS011;67776;52.012;4.736;2023-04-03T10:17:56;3.30;;;1.00;;
78489;SDS011;67776;52.012;4.736;2023-04-03T10:26:11;4.63;;;1.20;;
78489;SDS011;67776;52.012;4.736;2023-04-03T10:42:31;3.70;;;1.30;;
78489;SDS011;67776;52.012;4.736;2023-04-03T10:50:29;3.03;;;1.02;;
78489;SDS011;67776;52.012;4.736;2023-04-03T10:53:10;2.63;;;0.80;;
78489;SDS011;67776;52.012;4.736;2023-04-03T10:58:18;2.65;;;0.77;;
78489;SDS011;67776;52.012;4.736;2023-04-03T11:00:57;3.30;;;1.00;;
78489;SDS011;67776;52.012;4.736;2023-04-03T11:03:31;4.05;;;1.00;;
78489;SDS011;67776;52.012;4.736;2023-04-03T11:06:02;3.55;;;1.10;;
78489;SDS011;67776;52.012;4.736;2023-04-03T11:11:05;2.50;;;0.90;;
78489;SDS011;67776;52.012;4.736;2023-04-03T11:13:41;2.67;;;0.90;;
78489;SDS011;67776;52.012;4.736;2023-04-03T11:16:16;1.85;;;0.70;;
78489;SDS011;67776;52.012;4.736;2023-04-03T11:18:52;3.05;;;0.88;;
78489;SDS011;67776;52.012;4.736;2023-04-03T11:21:28;2.27;;;0.80;;
78489;SDS011;67776;52.012;4.736;2023-04-03T11:23:57;2.05;;;0.75;;
78489;SDS011;67776;52.012;4.736;2023-04-03T11:26:26;2.47;;;0.80;;
78489;SDS011;67776;52.012;4.736;2023-04-03T11:28:56;1.95;;;0.70;;
78489;SDS011;67776;52.012;4.736;2023-04-03T11:34:40;2.40;;;0.90;;
78489;SDS011;67776;52.012;4.736;2023-04-03T11:37:27;1.73;;;0.90;;
78489;SDS011;67776;52.012;4.736;2023-04-03T11:40:19;2.53;;;0.70;;
78489;SDS011;67776;52.012;4.736;2023-04-03T11:42:51;2.90;;;0.90;;
78489;SDS011;67776;52.012;4.736;2023-04-03T11:47:52;2.60;;;0.80;;
78489;SDS011;67776;52.012;4.736;2023-04-03T12:13:42;2.17;;;0.98;;
78489;SDS011;67776;52.012;4.736;2023-04-03T12:24:02;2.47;;;1.07;;
78489;SDS011;67776;52.012;4.736;2023-04-03T12:40:27;3.37;;;1.20;;
78489;SDS011;67776;52.012;4.736;2023-04-03T12:43:18;3.67;;;1.60;;
78489;SDS011;67776;52.012;4.736;2023-04-03T12:45:50;2.88;;;1.13;;
78489;SDS011;67776;52.012;4.736;2023-04-03T12:48:27;3.72;;;1.40;;
78489;SDS011;67776;52.012;4.736;2023-04-03T12:50:57;3.47;;;1.30;;
78489;SDS011;67776;52.012;4.736;2023-04-03T12:53:33;2.77;;;1.20;;
78489;SDS011;67776;52.012;4.736;2023-04-03T12:56:19;4.20;;;1.30;;
78489;SDS011;67776;52.012;4.736;2023-04-03T12:58:47;3.42;;;1.23;;
78489;SDS011;67776;52.012;4.736;2023-04-03T13:01:15;3.30;;;1.20;;
78489;SDS011;67776;52.012;4.736;2023-04-03T13:03:44;3.03;;;1.20;;
78489;SDS011;67776;52.012;4.736;2023-04-03T13:06:17;5.07;;;1.30;;
78489;SDS011;67776;52.012;4.736;2023-04-03T13:08:48;2.58;;;1.23;;
78489;SDS011;67776;52.012;4.736;2023-04-03T13:11:17;5.10;;;1.60;;
78489;SDS011;67776;52.012;4.736;2023-04-03T13:14:03;3.33;;;1.40;;
78489;SDS011;67776;52.012;4.736;2023-04-03T13:16:38;5.07;;;1.63;;
78489;SDS011;67776;52.012;4.736;2023-04-03T13:19:06;4.17;;;1.40;;
78489;SDS011;67776;52.012;4.736;2023-04-03T13:21:40;3.92;;;1.50;;
78489;SDS011;67776;52.012;4.736;2023-04-03T13:24:06;3.83;;;1.30;;
78489;SDS011;67776;52.012;4.736;2023-04-03T13:26:33;4.85;;;1.45;;
78489;SDS011;67776;52.012;4.736;2023-04-03T13:29:03;5.03;;;1.50;;
78489;SDS011;67776;52.012;4.736;2023-04-03T13:31:33;4.75;;;1.60;;
78489;SDS011;67776;52.012;4.736;2023-04-03T13:34:10;3.83;;;1.60;;
78489;SDS011;67776;52.012;4.736;2023-04-03T13:36:43;3.03;;;1.30;;
78489;SDS011;67776;52.012;4.736;2023-04-03T13:41:40;2.95;;;1.40;;
78489;SDS011;67776;52.012;4.736;2023-04-03T13:44:18;4.13;;;1.42;;
78489;SDS011;67776;52.012;4.736;2023-04-03T13:49:59;4.03;;;1.52;;
78489;SDS011;67776;52.012;4.736;2023-04-03T13:52:30;4.03;;;1.58;;
78489;SDS011;67776;52.012;4.736;2023-04-03T13:55:02;5.68;;;1.60;;
78489;SDS011;67776;52.012;4.736;2023-04-03T13:58:02;4.07;;;1.40;;
78489;SDS011;67776;52.012;4.736;2023-04-03T14:00:47;3.80;;;1.37;;
78489;SDS011;67776;52.012;4.736;2023-04-03T14:03:31;4.80;;;1.42;;
78489;SDS011;67776;52.012;4.736;2023-04-03T14:06:05;4.72;;;1.40;;
78489;SDS011;67776;52.012;4.736;2023-04-03T14:08:31;4.38;;;1.40;;
78489;SDS011;67776;52.012;4.736;2023-04-03T14:10:57;3.50;;;1.40;;
78489;SDS011;67776;52.012;4.736;2023-04-03T14:13:22;4.78;;;1.40;;
78489;SDS011;67776;52.012;4.736;2023-04-03T14:15:48;3.73;;;1.30;;
78489;SDS011;67776;52.012;4.736;2023-04-03T14:18:16;4.25;;;1.38;;
78489;SDS011;67776;52.012;4.736;2023-04-03T14:20:46;3.25;;;1.20;;
78489;SDS011;67776;52.012;4.736;2023-04-03T14:23:13;3.88;;;1.55;;
78489;SDS011;67776;52.012;4.736;2023-04-03T14:25:39;3.70;;;1.40;;
78489;SDS011;67776;52.012;4.736;2023-04-03T14:28:21;3.47;;;1.17;;
78489;SDS011;67776;52.012;4.736;2023-04-03T14:30:47;9.20;;;1.15;;
78489;SDS011;67776;52.012;4.736;2023-04-03T14:33:18;3.93;;;1.10;;
78489;SDS011;67776;52.012;4.736;2023-04-03T14:35:45;3.25;;;0.95;;
78489;SDS011;67776;52.012;4.736;2023-04-03T14:38:20;3.38;;;1.10;;
78489;SDS011;67776;52.012;4.736;2023-04-03T14:40:48;3.83;;;1.10;;
78489;SDS011;67776;52.012;4.736;2023-04-03T14:43:13;3.87;;;1.10;;
78489;SDS011;67776;52.012;4.736;2023-04-03T14:45:40;4.90;;;1.17;;
78489;SDS011;67776;52.012;4.736;2023-04-03T14:48:06;4.85;;;1.20;;
78489;SDS011;67776;52.012;4.736;2023-04-03T14:50:41;3.40;;;1.00;;
78489;SDS011;67776;52.012;4.736;2023-04-03T14:53:06;3.53;;;1.08;;
78489;SDS011;67776;52.012;4.736;2023-04-03T14:55:32;3.92;;;0.90;;
78489;SDS011;67776;52.012;4.736;2023-04-03T14:57:58;3.93;;;1.10;;
78489;SDS011;67776;52.012;4.736;2023-04-03T15:00:23;5.17;;;1.17;;
78489;SDS011;67776;52.012;4.736;2023-04-03T15:02:49;3.92;;;1.13;;
78489;SDS011;67776;52.012;4.736;2023-04-03T15:05:14;3.87;;;0.97;;
78489;SDS011;67776;52.012;4.736;2023-04-03T15:07:48;4.22;;;1.10;;
78489;SDS011;67776;52.012;4.736;2023-04-03T15:10:18;4.05;;;1.23;;
78489;SDS011;67776;52.012;4.736;2023-04-03T15:12:46;3.50;;;1.23;;
78489;SDS011;67776;52.012;4.736;2023-04-03T15:15:12;3.35;;;1.30;;
78489;SDS011;67776;52.012;4.736;2023-04-03T15:17:38;3.28;;;1.17;;
78489;SDS011;67776;52.012;4.736;2023-04-03T15:20:12;3.63;;;1.20;;
78489;SDS011;67776;52.012;4.736;2023-04-03T15:22:39;3.28;;;1.33;;
78489;SDS011;67776;52.012;4.736;2023-04-03T15:25:05;4.57;;;1.30;;
78489;SDS011;67776;52.012;4.736;2023-04-03T15:27:31;4.45;;;1.38;;
78489;SDS011;67776;52.012;4.736;2023-04-03T15:29:56;3.80;;;1.37;;
78489;SDS011;67776;52.012;4.736;2023-04-03T15:32:22;4.20;;;1.40;;
78489;SDS011;67776;52.012;4.736;2023-04-03T15:34:49;5.68;;;2.22;;
78489;SDS011;67776;52.012;4.736;2023-04-03T15:37:18;4.60;;;1.40;;
78489;SDS011;67776;52.012;4.736;2023-04-03T15:39:44;5.17;;;1.10;;
78489;SDS011;67776;52.012;4.736;2023-04-03T15:42:10;4.93;;;1.60;;
78489;SDS011;67776;52.012;4.736;2023-04-03T15:44:37;6.22;;;1.30;;
78489;SDS011;67776;52.012;4.736;2023-04-03T15:47:03;6.13;;;1.50;;
78489;SDS011;67776;52.012;4.736;2023-04-03T15:49:29;4.57;;;1.60;;
78489;SDS011;67776;52.012;4.736;2023-04-03T15:51:55;4.30;;;1.40;;
78489;SDS011;67776;52.012;4.736;2023-04-03T15:54:20;4.17;;;1.40;;
78489;SDS011;67776;52.012;4.736;2023-04-03T15:56:45;4.87;;;1.50;;
78489;SDS011;67776;52.012;4.736;2023-04-03T15:59:11;6.73;;;1.67;;
78489;SDS011;67776;52.012;4.736;2023-04-03T16:01:36;4.30;;;1.60;;
78489;SDS011;67776;52.012;4.736;2023-04-03T16:04:03;5.35;;;1.80;;
78489;SDS011;67776;52.012;4.736;2023-04-03T16:06:29;4.57;;;1.60;;
78489;SDS011;67776;52.012;4.736;2023-04-03T16:08:55;4.53;;;1.60;;
78489;SDS011;67776;52.012;4.736;2023-04-03T16:11:23;4.82;;;1.65;;
78489;SDS011;67776;52.012;4.736;2023-04-03T16:13:51;3.90;;;1.40;;
78489;SDS011;67776;52.012;4.736;2023-04-03T16:16:17;4.90;;;1.50;;
78489;SDS011;67776;52.012;4.736;2023-04-03T16:18:42;7.30;;;1.87;;
78489;SDS011;67776;52.012;4.736;2023-04-03T16:21:08;5.65;;;1.30;;
78489;SDS011;67776;52.012;4.736;2023-04-03T16:23:34;3.97;;;1.40;;
78489;SDS011;67776;52.012;4.736;2023-04-03T16:25:59;4.17;;;1.20;;
78489;SDS011;67776;52.012;4.736;2023-04-03T16:28:25;5.83;;;1.67;;
78489;SDS011;67776;52.012;4.736;2023-04-03T16:30:50;3.90;;;1.33;;
78489;SDS011;67776;52.012;4.736;2023-04-03T16:33:16;4.00;;;1.33;;
78489;SDS011;67776;52.012;4.736;2023-04-03T16:35:42;4.80;;;1.40;;
78489;SDS011;67776;52.012;4.736;2023-04-03T16:38:08;5.97;;;1.48;;
78489;SDS011;67776;52.012;4.736;2023-04-03T16:40:33;5.70;;;1.83;;
78489;SDS011;67776;52.012;4.736;2023-04-03T16:43:00;5.60;;;1.48;;